createdAt,value
2018-05-02T00:01:55.168Z,7.40
2018-05-02T00:04:27.336Z,7.50
2018-05-02T00:06:59.550Z,7.40
2018-05-02T00:09:31.690Z,7.40
2018-05-02T00:12:03.994Z,7.30
2018-05-02T00:14:36.103Z,7.30
2018-05-02T00:17:08.199Z,7.30
2018-05-02T00:19:41.145Z,7.10
2018-05-02T00:22:13.204Z,7.10
2018-05-02T00:24:45.315Z,7.10
2018-05-02T00:27:17.391Z,7.00
2018-05-02T00:29:49.523Z,6.90
2018-05-02T00:32:21.642Z,6.80
2018-05-02T00:34:53.945Z,6.70
2018-05-02T00:37:26.064Z,6.70
2018-05-02T00:39:58.996Z,6.50
2018-05-02T00:42:31.141Z,6.50
2018-05-02T00:45:03.260Z,6.40
2018-05-02T00:47:35.367Z,6.40
2018-05-02T00:50:07.497Z,6.30
2018-05-02T00:52:39.676Z,6.20
2018-05-02T00:55:11.839Z,6.20
2018-05-02T00:57:44.111Z,6.20
2018-05-02T01:00:16.440Z,6.20
2018-05-02T01:02:48.622Z,6.10
2018-05-02T01:05:20.822Z,6.10
2018-05-02T01:07:53.168Z,6.00
2018-05-02T01:10:25.273Z,6.10
2018-05-02T01:12:57.608Z,6.10
2018-05-02T01:15:29.845Z,6.00
2018-05-02T01:18:01.956Z,6.00
2018-05-02T01:20:34.247Z,6.00
2018-05-02T01:23:06.519Z,6.00
2018-05-02T01:25:38.663Z,6.10
2018-05-02T01:28:10.771Z,6.10
2018-05-02T01:30:42.883Z,6.10
2018-05-02T01:33:15.036Z,6.10
2018-05-02T01:35:47.133Z,6.10
2018-05-02T01:38:19.387Z,6.10
2018-05-02T01:40:51.547Z,6.10
2018-05-02T01:43:23.627Z,6.10
2018-05-02T01:45:57.127Z,6.10
2018-05-02T01:48:30.408Z,6.00
2018-05-02T01:51:02.524Z,6.10
2018-05-02T01:53:35.425Z,6.10
2018-05-02T01:56:07.544Z,6.10
2018-05-02T01:58:40.383Z,6.10
2018-05-02T02:01:12.669Z,6.10
2018-05-02T02:03:45.757Z,6.10
2018-05-02T02:06:17.927Z,6.10
2018-05-02T02:08:50.104Z,6.10
2018-05-02T02:11:22.951Z,6.10
2018-05-02T02:13:55.076Z,6.00
2018-05-02T02:16:27.405Z,6.10
2018-05-02T02:19:00.385Z,6.10
2018-05-02T02:21:32.604Z,6.10
2018-05-02T02:24:04.880Z,6.10
2018-05-02T02:26:37.120Z,6.10
2018-05-02T02:29:09.300Z,6.00
2018-05-02T02:31:42.435Z,5.90
2018-05-02T02:34:14.588Z,5.90
2018-05-02T02:36:46.970Z,5.80
2018-05-02T02:39:19.280Z,5.70
2018-05-02T02:41:51.920Z,5.70
2018-05-02T02:44:24.104Z,5.60
2018-05-02T02:46:56.228Z,5.60
2018-05-02T02:49:28.375Z,5.50
2018-05-02T02:52:00.535Z,5.50
2018-05-02T02:54:32.680Z,5.40
2018-05-02T02:57:04.744Z,5.40
2018-05-02T02:59:37.592Z,5.40
2018-05-02T03:02:10.520Z,5.40
2018-05-02T03:04:42.759Z,5.40
2018-05-02T03:07:14.868Z,5.50
2018-05-02T03:09:47.136Z,5.60
2018-05-02T03:12:19.285Z,5.70
2018-05-02T03:14:51.459Z,5.80
2018-05-02T03:17:23.696Z,5.90
2018-05-02T03:19:55.802Z,6.00
2018-05-02T03:22:27.975Z,6.00
2018-05-02T03:25:00.211Z,6.00
2018-05-02T03:27:32.348Z,6.00
2018-05-02T03:30:04.517Z,5.90
2018-05-02T03:32:36.700Z,5.80
2018-05-02T03:35:08.820Z,5.70
2018-05-02T03:37:41.084Z,5.60
2018-05-02T03:40:13.460Z,5.50
2018-05-02T03:42:45.580Z,5.50
2018-05-02T03:45:17.780Z,5.50
2018-05-02T03:47:49.904Z,5.50
2018-05-02T03:50:22.076Z,5.40
2018-05-02T03:52:54.315Z,5.50
2018-05-02T03:55:26.332Z,5.50
2018-05-02T03:57:58.498Z,5.40
2018-05-02T04:00:43.064Z,5.40
2018-05-02T04:03:27.703Z,5.40
2018-05-02T04:09:04.395Z,5.50
2018-05-02T04:11:36.568Z,5.40
2018-05-02T04:14:08.693Z,5.50
2018-05-02T04:16:40.795Z,5.70
2018-05-02T04:19:12.985Z,5.80
2018-05-02T04:21:45.075Z,5.90
2018-05-02T04:24:17.194Z,5.90
2018-05-02T04:26:49.364Z,5.90
2018-05-02T04:29:21.723Z,5.90
2018-05-02T04:31:54.011Z,5.90
2018-05-02T04:34:26.199Z,5.90
2018-05-02T04:36:59.057Z,6.00
2018-05-02T04:39:31.365Z,6.00
2018-05-02T04:42:03.479Z,6.00
2018-05-02T04:44:35.773Z,6.10
2018-05-02T04:47:08.072Z,6.20
2018-05-02T04:49:40.880Z,6.20
2018-05-02T04:52:13.035Z,6.20
2018-05-02T04:54:45.251Z,6.20
2018-05-02T04:57:17.381Z,6.20
2018-05-02T04:59:49.781Z,6.20
2018-05-02T05:02:22.623Z,6.20
2018-05-02T05:04:54.708Z,6.30
2018-05-02T05:07:26.820Z,6.30
2018-05-02T05:09:59.025Z,6.40
2018-05-02T05:12:31.151Z,6.40
2018-05-02T05:15:03.335Z,6.50
2018-05-02T05:17:35.496Z,6.60
2018-05-02T05:20:07.712Z,6.70
2018-05-02T05:22:39.983Z,6.80
2018-05-02T05:25:12.071Z,6.90
2018-05-02T13:01:37.264Z,21.80
2018-05-02T13:04:09.354Z,21.60
2018-05-02T13:06:41.681Z,21.20
2018-05-02T13:09:13.998Z,21.10
2018-05-02T13:11:46.249Z,20.90
2018-05-02T13:14:18.556Z,20.70
2018-05-02T13:16:51.400Z,21.40
2018-05-02T13:19:23.622Z,21.30
2018-05-02T13:21:55.948Z,21.60
2018-05-02T13:24:28.124Z,21.70
2018-05-02T13:27:00.263Z,21.80
2018-05-02T13:29:33.856Z,22.00
2018-05-02T13:32:06.077Z,22.00
2018-05-02T13:34:38.413Z,21.90
2018-05-02T13:37:10.729Z,22.00
2018-05-02T13:39:42.906Z,22.10
2018-05-02T13:42:15.272Z,22.00
2018-05-02T13:44:47.535Z,21.70
2018-05-02T13:47:19.937Z,21.50
2018-05-02T13:49:52.316Z,21.30
2018-05-02T13:52:24.408Z,21.30
2018-05-02T13:54:57.282Z,21.50
2018-05-02T13:57:29.631Z,21.50
2018-05-02T14:00:01.981Z,21.60
2018-05-02T14:02:34.292Z,21.70
2018-05-02T14:05:07.467Z,21.60
2018-05-02T14:07:39.767Z,21.60
2018-05-02T14:10:12.109Z,21.40
2018-05-02T14:12:44.378Z,21.40
2018-05-02T14:15:16.533Z,21.60
2018-05-02T14:17:49.735Z,21.50
2018-05-02T14:20:22.036Z,21.40
2018-05-02T14:22:54.393Z,21.60
2018-05-02T14:25:26.562Z,21.50
2018-05-02T14:27:59.017Z,21.50
2018-05-02T14:30:31.501Z,21.30
2018-05-02T14:33:03.588Z,21.00
2018-05-02T14:35:36.041Z,20.70
2018-05-02T14:38:08.300Z,20.60
2018-05-02T14:40:41.425Z,20.80
2018-05-02T14:43:13.752Z,20.80
2018-05-02T14:45:47.049Z,20.80
2018-05-02T14:48:19.233Z,20.80
2018-05-02T14:50:51.545Z,20.80
2018-05-02T14:53:23.792Z,20.80
2018-05-02T14:55:56.125Z,20.80
2018-05-02T14:58:28.770Z,20.80
2018-05-02T15:01:01.782Z,21.10
2018-05-02T15:03:34.268Z,21.10
2018-05-02T15:06:06.482Z,21.20
2018-05-02T15:08:38.787Z,21.40
2018-05-02T15:11:10.986Z,21.40
2018-05-02T15:13:44.197Z,21.40
2018-05-02T15:16:16.471Z,21.60
2018-05-02T15:18:49.535Z,21.60
2018-05-02T15:21:21.723Z,21.30
2018-05-02T15:23:54.057Z,21.00
2018-05-02T15:29:25.861Z,20.50
2018-05-02T15:31:58.921Z,19.60
2018-05-02T15:34:31.318Z,19.60
2018-05-02T15:37:03.611Z,19.30
2018-05-02T15:39:36.580Z,18.90
2018-05-02T15:42:08.955Z,18.90
2018-05-02T15:44:41.151Z,18.90
2018-05-02T15:47:13.588Z,19.00
2018-05-02T15:49:45.848Z,18.90
2018-05-02T15:52:18.671Z,19.00
2018-05-02T15:54:51.051Z,19.00
2018-05-02T15:57:23.435Z,19.00
2018-05-02T15:59:56.468Z,18.80
2018-05-02T16:02:28.669Z,18.80
2018-05-02T16:05:01.743Z,18.80
2018-05-02T16:07:33.892Z,18.70
2018-05-02T16:10:06.376Z,18.70
2018-05-02T16:12:39.376Z,18.50
2018-05-02T16:15:11.717Z,18.50
2018-05-02T16:17:43.991Z,18.60
2018-05-02T16:20:16.960Z,18.50
2018-05-02T16:22:49.060Z,18.50
2018-05-02T16:25:21.544Z,18.50
2018-05-02T16:27:53.833Z,18.40
2018-05-02T16:30:26.150Z,18.40
2018-05-02T16:32:58.353Z,18.50
2018-05-02T16:35:30.491Z,18.50
2018-05-02T16:38:02.585Z,18.50
2018-05-02T16:40:34.928Z,18.40
2018-05-02T16:43:07.021Z,18.40
2018-05-02T16:45:39.150Z,18.30
2018-05-02T16:48:11.349Z,18.20
2018-05-02T16:50:45.117Z,18.20
2018-05-02T16:53:17.721Z,18.20
2018-05-02T16:55:50.259Z,18.20
2018-05-02T16:58:25.411Z,18.20
2018-05-02T17:00:57.772Z,18.20
2018-05-02T17:03:30.887Z,18.20
2018-05-02T17:06:04.234Z,18.10
2018-05-02T17:08:38.196Z,18.10
2018-05-02T17:11:11.118Z,18.10
2018-05-02T17:13:43.560Z,18.20
2018-05-02T17:16:15.833Z,18.20
2018-05-02T17:18:48.912Z,18.10
2018-05-02T17:21:21.335Z,18.10
2018-05-02T17:23:53.779Z,18.00
2018-05-02T17:26:26.028Z,18.00
2018-05-02T17:28:58.349Z,18.00
2018-05-02T17:31:30.948Z,18.00
2018-05-02T17:34:03.213Z,18.00
2018-05-02T17:36:35.581Z,17.90
2018-05-02T17:39:07.979Z,17.90
2018-05-02T17:41:40.584Z,17.80
2018-05-02T17:44:12.954Z,17.80
2018-05-02T17:46:45.842Z,17.70
2018-05-02T17:49:18.125Z,17.70
2018-05-02T17:51:50.606Z,17.70
2018-05-02T17:54:23.560Z,17.60
2018-05-02T17:56:56.487Z,17.50
2018-05-02T17:59:28.642Z,17.60
2018-05-02T18:02:00.979Z,17.50
2018-05-02T18:04:33.539Z,17.50
2018-05-02T18:07:07.620Z,17.40
2018-05-02T18:09:40.136Z,17.40
2018-05-02T18:12:12.401Z,17.30
2018-05-02T18:14:45.374Z,17.30
2018-05-02T18:17:18.600Z,17.20
2018-05-02T18:19:50.906Z,17.20
2018-05-02T18:22:23.252Z,17.10
2018-05-02T18:24:55.542Z,17.10
2018-05-02T18:27:27.858Z,17.00
2018-05-02T18:30:00.313Z,17.00
2018-05-02T18:32:32.519Z,16.90
2018-05-02T18:35:05.694Z,16.80
2018-05-02T18:37:37.966Z,16.70
2018-05-02T18:40:10.321Z,16.70
2018-05-02T18:42:42.590Z,16.60
2018-05-02T18:45:14.819Z,16.60
2018-05-02T18:47:47.164Z,16.50
2018-05-02T18:50:19.307Z,16.50
2018-05-02T18:52:51.638Z,16.40
2018-05-02T18:55:24.015Z,16.40
2018-05-02T18:57:56.532Z,16.30
2018-05-02T19:00:28.845Z,16.30
2018-05-02T19:03:01.152Z,16.30
2018-05-02T19:05:33.579Z,16.20
2018-05-02T19:08:05.770Z,16.20
2018-05-02T19:10:38.027Z,16.20
2018-05-02T19:13:10.962Z,16.00
2018-05-02T19:15:43.318Z,16.00
2018-05-02T19:18:21.763Z,16.00
2018-05-02T19:20:54.012Z,15.90
2018-05-02T19:23:27.011Z,15.80
2018-05-02T19:26:05.240Z,15.70
2018-05-02T19:28:38.135Z,15.60
2018-05-02T19:31:16.317Z,15.60
2018-05-02T19:33:51.547Z,15.60
2018-05-02T19:36:23.851Z,15.50
2018-05-02T19:38:56.880Z,15.30
2018-05-02T19:41:35.235Z,15.30
2018-05-02T19:44:07.451Z,15.30
2018-05-02T19:46:39.689Z,15.10
2018-05-02T19:49:12.169Z,15.00
2018-05-02T19:51:50.619Z,15.00
2018-05-02T19:54:22.839Z,14.80
